Bekir Hacibekiroglu — TCSY2 — position and weather

sailwx.info

Track history (hours):
 
Tides and Currents Weather Stations Pressure Air Temp Water Temp Dewpoint Dewpoint Depression Visibility Wind Speed Wind Dir Waves Ship Positions

Bekir Hacibekiroglu

Last reported at 2014-Aug-30 00:31 UTC. Time now 2014-Sep-02 01:59 UTC.
Position N 39°58' E 025°57'.

Length 83 m; draft 6 m.

Type: Cargo ship. MMSI: 271002635.

Date/timePositionNaut miles runAvg speedWind from/ knotsBaromVisibWave heightAir tempDewpointWater temp
2014-Aug-30 00:31N 39°58' E 025°57'14310.1
2014-Aug-29 10:21N 40°55' E 028°49'5 6.2
2014-Aug-29 09:32N 40°58' E 028°55'0 0.0
2014-Aug-29 07:24N 40°58' E 028°55'0 0.0
2014-Aug-29 06:30N 40°58' E 028°55'0 0.1
2014-Aug-29 05:30N 40°57' E 028°55'0 0.0
2014-Aug-29 04:30N 40°57' E 028°55'0 0.0
2014-Aug-29 03:18N 40°57' E 028°55'0 0.0
2014-Aug-29 02:24N 40°57' E 028°55'0 0.0
2014-Aug-29 01:12N 40°57' E 028°55'0 0.0
2014-Aug-28 23:06N 40°58' E 028°55'0 0.0
2014-Aug-28 22:18N 40°57' E 028°55'0 0.0
2014-Aug-28 21:18N 40°58' E 028°55'0 0.1
2014-Aug-28 20:30N 40°58' E 028°55'269 7.1
2014-Aug-27 06:28N 45°21' E 030°11'87 8.0
2014-Aug-26 19:32N 46°35' E 031°16'9 8.9
2014-Aug-26 18:33N 46°36' E 031°29'9 8.5
2014-Aug-26 17:31N 46°36' E 031°42'9 8.9
2014-Aug-26 16:33N 46°38' E 031°54'8 7.6
2014-Aug-26 15:33N 46°45' E 031°54'8 8.4
2014-Aug-26 14:33N 46°53' E 031°59'4 3.5
2014-Aug-26 13:31N 46°56' E 032°00'0 0.0
2014-Aug-26 12:31N 46°56' E 032°00'0 0.0
2014-Aug-26 11:31N 46°56' E 032°00'0 0.0
2014-Aug-26 10:31N 46°56' E 032°00'0 0.0
2014-Aug-26 09:31N 46°56' E 032°00'0 0.0
2014-Aug-26 08:31N 46°56' E 032°00'0 0.0
2014-Aug-26 07:31N 46°56' E 032°00'0 0.0
2014-Aug-26 06:31N 46°56' E 032°00'0 0.0
2014-Aug-26 05:31N 46°56' E 032°00'0 0.1
2014-Aug-26 04:31N 46°56' E 032°00'0 0.0
2014-Aug-26 03:31N 46°56' E 032°00'0 0.0
2014-Aug-26 02:31N 46°56' E 032°00'0 0.0
2014-Aug-26 01:31N 46°56' E 032°00'0 0.0
2014-Aug-26 00:31N 46°56' E 032°00'0 0.0
2014-Aug-25 23:31N 46°56' E 032°00'0 0.0
2014-Aug-25 22:31N 46°56' E 032°00'0 0.0
2014-Aug-25 21:31N 46°56' E 032°00'0 0.0
2014-Aug-25 20:31N 46°56' E 032°00'0 0.0
2014-Aug-25 19:31N 46°56' E 032°00'0 0.0
2014-Aug-25 18:31N 46°56' E 032°00'0 0.0
2014-Aug-25 17:28N 46°56' E 032°00'0 0.0
2014-Aug-25 16:31N 46°56' E 032°00'0 0.0
2014-Aug-25 15:31N 46°56' E 032°00'0 0.0
2014-Aug-25 14:31N 46°56' E 032°00'0 0.0
2014-Aug-25 13:31N 46°56' E 032°00'0 0.0
2014-Aug-25 12:28N 46°56' E 032°00'0 0.0
2014-Aug-25 11:31N 46°56' E 032°00'0 0.0
2014-Aug-25 10:31N 46°56' E 032°00'0 0.0
2014-Aug-25 09:31N 46°56' E 032°00'0 0.0
2014-Aug-25 08:31N 46°56' E 032°00'0 0.0
2014-Aug-25 07:31N 46°56' E 032°00'0 0.0
2014-Aug-25 06:31N 46°56' E 032°00'0 0.0
2014-Aug-25 05:31N 46°56' E 032°00'0 0.0
2014-Aug-25 04:31N 46°56' E 032°00'0 0.0
2014-Aug-25 03:31N 46°56' E 032°00'0 0.0
2014-Aug-25 02:31N 46°56' E 032°00'0 0.0
2014-Aug-25 01:31N 46°56' E 032°00'0 0.0
2014-Aug-25 00:31N 46°56' E 032°00'0 0.0
2014-Aug-24 23:31N 46°56' E 032°00'0 0.0
2014-Aug-24 22:31N 46°56' E 032°00'0 0.0
2014-Aug-24 21:31N 46°56' E 032°00'0 0.0
2014-Aug-24 20:31N 46°56' E 032°00'0 0.0
2014-Aug-24 19:31N 46°56' E 032°00'0 0.0
2014-Aug-24 18:31N 46°56' E 032°00'0 0.0
2014-Aug-24 17:31N 46°56' E 032°00'0 0.0
2014-Aug-24 16:31N 46°56' E 032°00'0 0.0
2014-Aug-24 15:31N 46°56' E 032°00'0 0.0
2014-Aug-24 14:31N 46°56' E 032°00'0 0.0
2014-Aug-24 13:31N 46°56' E 032°00'1 0.5
2014-Aug-24 12:33N 46°57' E 031°60'0 0.2
2014-Aug-24 11:31N 46°57' E 031°60'0 0.0
2014-Aug-24 10:31N 46°57' E 031°60'0 0.0
2014-Aug-24 09:28N 46°57' E 031°60'0 0.0
2014-Aug-24 08:31N 46°57' E 031°60'0 0.0
2014-Aug-24 07:31N 46°57' E 031°60'0 0.0
2014-Aug-24 06:31N 46°57' E 031°60'0 0.0
2014-Aug-24 05:31N 46°57' E 031°60'0 0.0
2014-Aug-24 04:31N 46°57' E 031°60'0 0.0
2014-Aug-24 03:31N 46°57' E 031°60'0 0.0
2014-Aug-24 02:31N 46°57' E 031°60'0 0.0
2014-Aug-24 01:33N 46°57' E 031°60'0 0.0
2014-Aug-24 00:33N 46°57' E 031°60'0 0.0
2014-Aug-23 23:33N 46°57' E 031°60'0 0.0
2014-Aug-23 22:33N 46°57' E 031°60'0 0.0
2014-Aug-23 21:33N 46°57' E 031°60'0 0.0
2014-Aug-23 20:33N 46°57' E 031°60'0 0.0
2014-Aug-23 19:33N 46°57' E 031°60'310 9.1
2014-Aug-22 09:33N 42°05' E 029°36'1110.8
2014-Aug-22 08:33N 41°55' E 029°29'1110.6
2014-Aug-22 07:33N 41°46' E 029°23'49 9.4
2014-Aug-22 02:24N 41°00' E 028°60'5 5.8
2014-Aug-22 01:33N 40°56' E 028°57'4 3.3
2014-Aug-22 00:28N 40°58' E 028°54'0 0.0
2014-Aug-21 23:33N 40°58' E 028°54'0 0.0
2014-Aug-21 22:24N 40°58' E 028°54'0 0.0
2014-Aug-21 21:24N 40°58' E 028°54'0 0.0
2014-Aug-21 20:29N 40°58' E 028°54'0 0.0
2014-Aug-21 19:26N 40°58' E 028°54'0 0.0
2014-Aug-21 18:33N 40°58' E 028°54'0 0.0
2014-Aug-21 17:33N 40°58' E 028°54'0 0.0
2014-Aug-21 16:32N 40°58' E 028°54'0 0.0
2014-Aug-21 15:27N 40°58' E 028°54'0 0.1
2014-Aug-21 14:30N 40°58' E 028°54'0 0.0
2014-Aug-21 13:33N 40°58' E 028°54'0 0.0
2014-Aug-21 12:32N 40°58' E 028°54'0 0.0
2014-Aug-21 11:33N 40°58' E 028°54'0 0.0
2014-Aug-21 10:33N 40°58' E 028°54'0 0.0
2014-Aug-21 09:33N 40°58' E 028°54'0 0.0
2014-Aug-21 08:33N 40°58' E 028°54'0 0.1
2014-Aug-21 07:33N 40°58' E 028°54'0 0.0
2014-Aug-21 06:32N 40°58' E 028°54'0 0.0
2014-Aug-21 05:33N 40°58' E 028°54'0 0.0
2014-Aug-21 04:33N 40°58' E 028°54'0 0.0
2014-Aug-21 03:33N 40°58' E 028°54'1 0.8
2014-Aug-21 02:31N 40°57' E 028°55'6 6.0
2014-Aug-21 01:33N 40°52' E 028°51'120 9.9
2014-Aug-20 13:22N 40°09' E 026°23'  
Track history (hours):
 
Tides and Currents Weather Stations Pressure Air Temp Water Temp Dewpoint Dewpoint Depression Visibility Wind Speed Wind Dir Waves Ship Positions

Bekir Hacibekiroglu

Last reported at 2014-Aug-30 00:31 UTC. Time now 2014-Sep-02 01:59 UTC.
Position N 39°58' E 025°57'.

Length 83 m; draft 6 m.

Type: Cargo ship. MMSI: 271002635.

Date/timePositionNaut miles runAvg speedWind from/ knotsBaromVisibWave heightAir tempDewpointWater temp
2014-Aug-30 00:31N 39°58' E 025°57'14310.1
2014-Aug-29 10:21N 40°55' E 028°49'5 6.2
2014-Aug-29 09:32N 40°58' E 028°55'0 0.0
2014-Aug-29 07:24N 40°58' E 028°55'0 0.0
2014-Aug-29 06:30N 40°58' E 028°55'0 0.1
2014-Aug-29 05:30N 40°57' E 028°55'0 0.0
2014-Aug-29 04:30N 40°57' E 028°55'0 0.0
2014-Aug-29 03:18N 40°57' E 028°55'0 0.0
2014-Aug-29 02:24N 40°57' E 028°55'0 0.0
2014-Aug-29 01:12N 40°57' E 028°55'0 0.0
2014-Aug-28 23:06N 40°58' E 028°55'0 0.0
2014-Aug-28 22:18N 40°57' E 028°55'0 0.0
2014-Aug-28 21:18N 40°58' E 028°55'0 0.1
2014-Aug-28 20:30N 40°58' E 028°55'269 7.1
2014-Aug-27 06:28N 45°21' E 030°11'87 8.0
2014-Aug-26 19:32N 46°35' E 031°16'9 8.9
2014-Aug-26 18:33N 46°36' E 031°29'9 8.5
2014-Aug-26 17:31N 46°36' E 031°42'9 8.9
2014-Aug-26 16:33N 46°38' E 031°54'8 7.6
2014-Aug-26 15:33N 46°45' E 031°54'8 8.4
2014-Aug-26 14:33N 46°53' E 031°59'4 3.5
2014-Aug-26 13:31N 46°56' E 032°00'0 0.0
2014-Aug-26 12:31N 46°56' E 032°00'0 0.0
2014-Aug-26 11:31N 46°56' E 032°00'0 0.0
2014-Aug-26 10:31N 46°56' E 032°00'0 0.0
2014-Aug-26 09:31N 46°56' E 032°00'0 0.0
2014-Aug-26 08:31N 46°56' E 032°00'0 0.0
2014-Aug-26 07:31N 46°56' E 032°00'0 0.0
2014-Aug-26 06:31N 46°56' E 032°00'0 0.0
2014-Aug-26 05:31N 46°56' E 032°00'0 0.1
2014-Aug-26 04:31N 46°56' E 032°00'0 0.0
2014-Aug-26 03:31N 46°56' E 032°00'0 0.0
2014-Aug-26 02:31N 46°56' E 032°00'0 0.0
2014-Aug-26 01:31N 46°56' E 032°00'0 0.0
2014-Aug-26 00:31N 46°56' E 032°00'0 0.0
2014-Aug-25 23:31N 46°56' E 032°00'0 0.0
2014-Aug-25 22:31N 46°56' E 032°00'0 0.0
2014-Aug-25 21:31N 46°56' E 032°00'0 0.0
2014-Aug-25 20:31N 46°56' E 032°00'0 0.0
2014-Aug-25 19:31N 46°56' E 032°00'0 0.0
2014-Aug-25 18:31N 46°56' E 032°00'0 0.0
2014-Aug-25 17:28N 46°56' E 032°00'0 0.0
2014-Aug-25 16:31N 46°56' E 032°00'0 0.0
2014-Aug-25 15:31N 46°56' E 032°00'0 0.0
2014-Aug-25 14:31N 46°56' E 032°00'0 0.0
2014-Aug-25 13:31N 46°56' E 032°00'0 0.0
2014-Aug-25 12:28N 46°56' E 032°00'0 0.0
2014-Aug-25 11:31N 46°56' E 032°00'0 0.0
2014-Aug-25 10:31N 46°56' E 032°00'0 0.0
2014-Aug-25 09:31N 46°56' E 032°00'0 0.0
2014-Aug-25 08:31N 46°56' E 032°00'0 0.0
2014-Aug-25 07:31N 46°56' E 032°00'0 0.0
2014-Aug-25 06:31N 46°56' E 032°00'0 0.0
2014-Aug-25 05:31N 46°56' E 032°00'0 0.0
2014-Aug-25 04:31N 46°56' E 032°00'0 0.0
2014-Aug-25 03:31N 46°56' E 032°00'0 0.0
2014-Aug-25 02:31N 46°56' E 032°00'0 0.0
2014-Aug-25 01:31N 46°56' E 032°00'0 0.0
2014-Aug-25 00:31N 46°56' E 032°00'0 0.0
2014-Aug-24 23:31N 46°56' E 032°00'0 0.0
2014-Aug-24 22:31N 46°56' E 032°00'0 0.0
2014-Aug-24 21:31N 46°56' E 032°00'0 0.0
2014-Aug-24 20:31N 46°56' E 032°00'0 0.0
2014-Aug-24 19:31N 46°56' E 032°00'0 0.0
2014-Aug-24 18:31N 46°56' E 032°00'0 0.0
2014-Aug-24 17:31N 46°56' E 032°00'0 0.0
2014-Aug-24 16:31N 46°56' E 032°00'0 0.0
2014-Aug-24 15:31N 46°56' E 032°00'0 0.0
2014-Aug-24 14:31N 46°56' E 032°00'0 0.0
2014-Aug-24 13:31N 46°56' E 032°00'1 0.5
2014-Aug-24 12:33N 46°57' E 031°60'0 0.2
2014-Aug-24 11:31N 46°57' E 031°60'0 0.0
2014-Aug-24 10:31N 46°57' E 031°60'0 0.0
2014-Aug-24 09:28N 46°57' E 031°60'0 0.0
2014-Aug-24 08:31N 46°57' E 031°60'0 0.0
2014-Aug-24 07:31N 46°57' E 031°60'0 0.0
2014-Aug-24 06:31N 46°57' E 031°60'0 0.0
2014-Aug-24 05:31N 46°57' E 031°60'0 0.0
2014-Aug-24 04:31N 46°57' E 031°60'0 0.0
2014-Aug-24 03:31N 46°57' E 031°60'0 0.0
2014-Aug-24 02:31N 46°57' E 031°60'0 0.0
2014-Aug-24 01:33N 46°57' E 031°60'0 0.0
2014-Aug-24 00:33N 46°57' E 031°60'0 0.0
2014-Aug-23 23:33N 46°57' E 031°60'0 0.0
2014-Aug-23 22:33N 46°57' E 031°60'0 0.0
2014-Aug-23 21:33N 46°57' E 031°60'0 0.0
2014-Aug-23 20:33N 46°57' E 031°60'0 0.0
2014-Aug-23 19:33N 46°57' E 031°60'310 9.1
2014-Aug-22 09:33N 42°05' E 029°36'1110.8
2014-Aug-22 08:33N 41°55' E 029°29'1110.6
2014-Aug-22 07:33N 41°46' E 029°23'49 9.4
2014-Aug-22 02:24N 41°00' E 028°60'5 5.8
2014-Aug-22 01:33N 40°56' E 028°57'4 3.3
2014-Aug-22 00:28N 40°58' E 028°54'0 0.0
2014-Aug-21 23:33N 40°58' E 028°54'0 0.0
2014-Aug-21 22:24N 40°58' E 028°54'0 0.0
2014-Aug-21 21:24N 40°58' E 028°54'0 0.0
2014-Aug-21 20:29N 40°58' E 028°54'0 0.0
2014-Aug-21 19:26N 40°58' E 028°54'0 0.0
2014-Aug-21 18:33N 40°58' E 028°54'0 0.0
2014-Aug-21 17:33N 40°58' E 028°54'0 0.0
2014-Aug-21 16:32N 40°58' E 028°54'0 0.0
2014-Aug-21 15:27N 40°58' E 028°54'0 0.1
2014-Aug-21 14:30N 40°58' E 028°54'0 0.0
2014-Aug-21 13:33N 40°58' E 028°54'0 0.0
2014-Aug-21 12:32N 40°58' E 028°54'0 0.0
2014-Aug-21 11:33N 40°58' E 028°54'0 0.0
2014-Aug-21 10:33N 40°58' E 028°54'0 0.0
2014-Aug-21 09:33N 40°58' E 028°54'0 0.0
2014-Aug-21 08:33N 40°58' E 028°54'0 0.1
2014-Aug-21 07:33N 40°58' E 028°54'0 0.0
2014-Aug-21 06:32N 40°58' E 028°54'0 0.0
2014-Aug-21 05:33N 40°58' E 028°54'0 0.0
2014-Aug-21 04:33N 40°58' E 028°54'0 0.0
2014-Aug-21 03:33N 40°58' E 028°54'1 0.8
2014-Aug-21 02:31N 40°57' E 028°55'6 6.0
2014-Aug-21 01:33N 40°52' E 028°51'120 9.9
2014-Aug-20 13:22N 40°09' E 026°23'  

Dump ship's entire track history